Time;durP1;ratioP1;P1;durP2;ratioP2;P2;SDS_P1;SDS_P2;PMS_P1;PMS_P2;Temp;Humidity;BMP_temperature;BMP_pressure;BME280_temperature;BME280_humidity;BME280_pressure;Samples;Min_cycle;Max_cycle;Signal;HPM_P1;HPM_P2
2021/10/17 00:00:07;;;;;;;0.60;0.60;;;;;;;;;;4955444;29;20289;-87
2021/10/17 00:02:35;;;;;;;0.60;0.60;;;;;;;;;;4955695;29;20186;-86
2021/10/17 00:05:02;;;;;;;0.47;0.47;;;;;;;;;;4955830;29;20233;-86
2021/10/17 00:07:29;;;;;;;1.13;0.40;;;;;;;;;;4955293;29;20261;-86
2021/10/17 00:09:56;;;;;;;0.23;0.23;;;;;;;;;;4955289;29;20202;-85
2021/10/17 00:12:24;;;;;;;0.37;0.37;;;;;;;;;;4955309;29;20206;-86
2021/10/17 00:14:53;;;;;;;0.30;0.30;;;;;;;;;;4955719;29;20201;-86
2021/10/17 00:17:20;;;;;;;0.97;0.53;;;;;;;;;;4955296;29;20198;-86
2021/10/17 00:19:47;;;;;;;2.13;1.37;;;;;;;;;;4955316;29;20244;-86
2021/10/17 00:22:14;;;;;;;3.33;2.00;;;;;;;;;;4955035;29;20296;-86
2021/10/17 00:24:42;;;;;;;3.90;1.93;;;;;;;;;;4955575;29;20259;-86
2021/10/17 00:27:09;;;;;;;3.13;1.60;;;;;;;;;;4955273;29;20253;-86
2021/10/17 00:29:36;;;;;;;1.40;1.13;;;;;;;;;;4955359;29;20233;-86
2021/10/17 00:32:08;;;;;;;1.57;1.23;;;;;;;;;;4955003;29;20296;-84
2021/10/17 00:34:36;;;;;;;0.43;0.43;;;;;;;;;;4955268;29;20625;-86
2021/10/17 00:37:03;;;;;;;0.50;0.50;;;;;;;;;;4955222;29;20581;-86
2021/10/17 00:39:31;;;;;;;1.17;0.30;;;;;;;;;;4955223;29;20248;-86
2021/10/17 00:41:59;;;;;;;0.27;0.27;;;;;;;;;;4954538;29;20294;-86
2021/10/17 00:44:26;;;;;;;0.40;0.40;;;;;;;;;;4955094;29;20205;-86
2021/10/17 00:46:54;;;;;;;3.30;0.40;;;;;;;;;;4954970;29;20336;-85
2021/10/17 00:49:22;;;;;;;0.13;0.13;;;;;;;;;;4954381;28;20248;-86
2021/10/17 00:51:50;;;;;;;0.30;0.30;;;;;;;;;;4954227;29;20210;-86
2021/10/17 00:54:17;;;;;;;0.30;0.30;;;;;;;;;;4954993;29;20630;-86
2021/10/17 00:56:46;;;;;;;0.30;0.30;;;;;;;;;;4954773;29;20238;-87
2021/10/17 00:59:14;;;;;;;0.60;0.60;;;;;;;;;;4954798;29;20209;-86
2021/10/17 01:01:41;;;;;;;2.23;0.50;;;;;;;;;;4954775;29;20205;-85
2021/10/17 01:04:09;;;;;;;1.20;1.10;;;;;;;;;;4954770;29;20210;-85
2021/10/17 01:06:38;;;;;;;1.87;1.77;;;;;;;;;;4954185;29;20233;-85
2021/10/17 01:09:06;;;;;;;13.90;12.67;;;;;;;;;;4954309;29;20198;-86
2021/10/17 01:11:41;;;;;;;3.43;3.13;;;;;;;;;;4954277;29;20292;-86
2021/10/17 01:14:09;;;;;;;4.93;4.43;;;;;;;;;;4954292;29;20201;-86
2021/10/17 01:16:38;;;;;;;3.23;2.87;;;;;;;;;;4954139;29;20229;-86
2021/10/17 01:19:06;;;;;;;1.10;1.00;;;;;;;;;;4954412;29;20646;-85
2021/10/17 01:21:35;;;;;;;1.00;1.00;;;;;;;;;;4954386;29;20202;-85
2021/10/17 01:24:02;;;;;;;0.20;0.20;;;;;;;;;;4954257;29;20205;-86
2021/10/17 01:26:29;;;;;;;5.60;0.70;;;;;;;;;;4953662;29;20228;-86
2021/10/17 01:28:56;;;;;;;0.27;0.27;;;;;;;;;;4954138;29;20248;-86
2021/10/17 01:31:34;;;;;;;0.30;0.30;;;;;;;;;;4954515;29;20662;-86
2021/10/17 01:34:01;;;;;;;0.47;0.47;;;;;;;;;;4954248;29;20194;-86
2021/10/17 01:36:28;;;;;;;0.30;0.30;;;;;;;;;;4953907;29;20257;-86
2021/10/17 01:38:57;;;;;;;1.40;0.30;;;;;;;;;;4953888;29;20322;-86
2021/10/17 01:41:25;;;;;;;1.70;1.23;;;;;;;;;;4954232;29;20202;-86
2021/10/17 01:43:52;;;;;;;2.10;2.00;;;;;;;;;;4954353;29;20595;-85
2021/10/17 01:46:19;;;;;;;1.60;0.70;;;;;;;;;;4953962;29;20205;-86
2021/10/17 01:48:47;;;;;;;0.30;0.30;;;;;;;;;;4953455;29;20738;-86
2021/10/17 01:51:14;;;;;;;0.53;0.53;;;;;;;;;;4953732;29;20193;-86
2021/10/17 01:53:41;;;;;;;0.20;0.20;;;;;;;;;;4954110;29;20284;-85
2021/10/17 01:56:10;;;;;;;0.63;0.33;;;;;;;;;;4953932;29;20565;-86
2021/10/17 01:58:37;;;;;;;0.90;0.70;;;;;;;;;;4954098;29;20194;-86
2021/10/17 02:01:05;;;;;;;0.30;0.30;;;;;;;;;;4953462;28;20201;-86
2021/10/17 02:03:32;;;;;;;0.20;0.20;;;;;;;;;;4957812;29;20268;-86
2021/10/17 02:06:02;;;;;;;1.67;0.27;;;;;;;;;;4958104;29;20202;-85
2021/10/17 02:08:29;;;;;;;0.20;0.20;;;;;;;;;;4957502;29;20722;-86
2021/10/17 02:10:56;;;;;;;0.77;0.30;;;;;;;;;;4957480;29;20236;-86
2021/10/17 02:13:25;;;;;;;0.20;0.20;;;;;;;;;;4957784;29;20207;-86
2021/10/17 02:15:52;;;;;;;0.27;0.27;;;;;;;;;;4957462;29;20202;-85
2021/10/17 02:18:19;;;;;;;0.27;0.27;;;;;;;;;;4957377;29;20208;-85
2021/10/17 02:20:47;;;;;;;0.30;0.30;;;;;;;;;;4957301;29;20288;-85
2021/10/17 02:23:14;;;;;;;0.43;0.43;;;;;;;;;;4957708;29;20208;-86
2021/10/17 02:25:41;;;;;;;0.30;0.30;;;;;;;;;;4957217;29;20671;-85
2021/10/17 02:28:08;;;;;;;0.63;0.40;;;;;;;;;;4957564;29;20230;-86
2021/10/17 02:30:37;;;;;;;1.10;0.50;;;;;;;;;;4957172;29;20216;-85
2021/10/17 02:33:04;;;;;;;0.30;0.30;;;;;;;;;;4957157;29;20714;-86
2021/10/17 02:35:32;;;;;;;0.23;0.23;;;;;;;;;;4956960;29;20285;-85
2021/10/17 02:37:59;;;;;;;0.30;0.30;;;;;;;;;;4957093;29;20285;-86
2021/10/17 02:40:26;;;;;;;0.30;0.30;;;;;;;;;;4957158;29;20210;-85
2021/10/17 02:42:53;;;;;;;0.50;0.30;;;;;;;;;;4956916;29;20241;-86
2021/10/17 02:45:21;;;;;;;0.30;0.30;;;;;;;;;;4956869;29;20242;-86
2021/10/17 02:47:49;;;;;;;0.17;0.17;;;;;;;;;;4956776;29;20225;-85
2021/10/17 02:50:17;;;;;;;0.93;0.50;;;;;;;;;;4956735;28;20244;-85
2021/10/17 02:52:44;;;;;;;1.53;0.30;;;;;;;;;;4956917;29;20292;-86
2021/10/17 02:55:12;;;;;;;0.30;0.30;;;;;;;;;;4957033;29;20288;-86
2021/10/17 02:57:39;;;;;;;1.23;1.13;;;;;;;;;;4956776;29;20338;-86
2021/10/17 03:00:07;;;;;;;3.13;2.27;;;;;;;;;;4956866;29;20198;-86
2021/10/17 03:02:34;;;;;;;1.80;1.23;;;;;;;;;;4956601;29;20292;-86
2021/10/17 03:05:04;;;;;;;1.20;1.10;;;;;;;;;;4956723;29;20201;-85
2021/10/17 03:07:31;;;;;;;0.70;0.70;;;;;;;;;;4956329;29;20252;-86
2021/10/17 03:09:58;;;;;;;1.40;1.30;;;;;;;;;;4956530;29;20244;-85
2021/10/17 03:12:26;;;;;;;0.50;0.50;;;;;;;;;;4956374;28;20205;-86
2021/10/17 03:14:53;;;;;;;1.00;0.90;;;;;;;;;;4955572;29;20201;-86
2021/10/17 03:17:20;;;;;;;0.60;0.60;;;;;;;;;;4956422;29;20205;-86
2021/10/17 03:19:49;;;;;;;3.47;3.17;;;;;;;;;;4956328;29;20232;-86
2021/10/17 03:22:18;;;;;;;1.03;0.80;;;;;;;;;;4956345;29;20206;-86
2021/10/17 03:24:45;;;;;;;4.00;3.70;;;;;;;;;;4956105;29;20206;-86
2021/10/17 03:27:12;;;;;;;1.60;1.50;;;;;;;;;;4955969;29;20261;-86
2021/10/17 03:29:39;;;;;;;1.50;1.20;;;;;;;;;;4956704;29;20292;-86
2021/10/17 03:32:07;;;;;;;1.73;1.63;;;;;;;;;;4956545;29;20599;-86
2021/10/17 03:34:35;;;;;;;0.50;0.50;;;;;;;;;;4956140;29;20292;-86
2021/10/17 03:37:02;;;;;;;0.43;0.43;;;;;;;;;;4955973;29;20201;-86
2021/10/17 03:39:31;;;;;;;2.83;2.63;;;;;;;;;;4956021;29;20241;-86
2021/10/17 03:41:58;;;;;;;1.00;0.90;;;;;;;;;;4955913;29;20208;-86
2021/10/17 03:44:25;;;;;;;1.30;1.10;;;;;;;;;;4956040;29;20635;-85
2021/10/17 03:46:53;;;;;;;0.60;0.60;;;;;;;;;;4955829;29;20647;-86
2021/10/17 03:49:20;;;;;;;0.20;0.20;;;;;;;;;;4955798;28;20237;-85
2021/10/17 03:51:47;;;;;;;0.40;0.40;;;;;;;;;;4956003;29;20248;-85
2021/10/17 03:54:15;;;;;;;0.20;0.20;;;;;;;;;;4955628;29;20201;-86
2021/10/17 03:56:44;;;;;;;0.30;0.30;;;;;;;;;;4955696;29;20202;-86
2021/10/17 03:59:11;;;;;;;0.30;0.30;;;;;;;;;;4955773;29;20285;-85
2021/10/17 04:01:38;;;;;;;0.20;0.20;;;;;;;;;;4955572;29;20328;-84
2021/10/17 04:04:05;;;;;;;0.30;0.30;;;;;;;;;;4955668;29;20664;-84
2021/10/17 04:06:33;;;;;;;0.33;0.33;;;;;;;;;;4955267;29;20197;-85
2021/10/17 04:09:00;;;;;;;0.30;0.30;;;;;;;;;;4952194;29;20236;-85
2021/10/17 04:11:27;;;;;;;0.30;0.30;;;;;;;;;;4954555;29;20746;-86
2021/10/17 04:13:56;;;;;;;0.40;0.40;;;;;;;;;;4955238;29;20198;-86
2021/10/17 04:16:23;;;;;;;0.20;0.20;;;;;;;;;;4955251;29;20609;-85
2021/10/17 04:18:50;;;;;;;0.23;0.23;;;;;;;;;;4955119;29;20202;-86
2021/10/17 04:21:17;;;;;;;0.40;0.40;;;;;;;;;;4955062;29;20202;-85
2021/10/17 04:23:44;;;;;;;0.40;0.40;;;;;;;;;;4954927;29;20208;-85
2021/10/17 04:26:12;;;;;;;0.90;0.90;;;;;;;;;;4954719;28;20212;-84
2021/10/17 04:28:39;;;;;;;0.80;0.80;;;;;;;;;;4954811;29;20285;-84
2021/10/17 04:31:08;;;;;;;0.37;0.37;;;;;;;;;;4955165;29;20292;-85
2021/10/17 04:33:35;;;;;;;0.50;0.50;;;;;;;;;;4954822;29;20205;-85
2021/10/17 04:36:02;;;;;;;1.50;1.40;;;;;;;;;;4954830;29;20584;-86
2021/10/17 04:38:29;;;;;;;1.37;1.27;;;;;;;;;;4954940;29;20562;-85
2021/10/17 04:40:56;;;;;;;0.70;0.70;;;;;;;;;;4955074;29;20635;-86
2021/10/17 04:43:24;;;;;;;0.47;0.47;;;;;;;;;;4954893;29;20202;-85
2021/10/17 04:45:51;;;;;;;1.13;0.50;;;;;;;;;;4954957;29;20200;-85
2021/10/17 04:48:20;;;;;;;0.40;0.40;;;;;;;;;;4954564;29;20736;-86
2021/10/17 04:50:47;;;;;;;0.30;0.30;;;;;;;;;;4954230;29;20244;-85
2021/10/17 04:53:14;;;;;;;1.10;1.00;;;;;;;;;;4955019;29;20584;-86
2021/10/17 04:55:42;;;;;;;2.73;2.10;;;;;;;;;;4954642;29;20201;-87
2021/10/17 04:58:09;;;;;;;1.70;1.60;;;;;;;;;;4954156;29;20257;-86
2021/10/17 05:00:36;;;;;;;0.70;0.70;;;;;;;;;;4954459;29;20228;-84
2021/10/17 05:03:04;;;;;;;0.60;0.60;;;;;;;;;;4954123;29;20241;-85
2021/10/17 05:05:32;;;;;;;8.57;6.03;;;;;;;;;;4954300;29;20198;-85
2021/10/17 05:08:00;;;;;;;2.30;2.10;;;;;;;;;;4954583;29;20249;-85
2021/10/17 05:10:27;;;;;;;0.40;0.40;;;;;;;;;;4954590;29;20697;-88
2021/10/17 05:12:55;;;;;;;1.10;1.00;;;;;;;;;;4936546;29;20253;-87
2021/10/17 05:15:22;;;;;;;17.33;10.60;;;;;;;;;;4935490;29;20202;-87
2021/10/17 05:17:49;;;;;;;1.00;0.90;;;;;;;;;;4935425;29;20213;-87
2021/10/17 05:20:16;;;;;;;0.50;0.50;;;;;;;;;;4935577;29;20212;-87
2021/10/17 05:22:45;;;;;;;0.43;0.43;;;;;;;;;;4934955;29;20195;-86
2021/10/17 05:25:13;;;;;;;0.50;0.50;;;;;;;;;;4935226;29;20293;-86
2021/10/17 05:27:41;;;;;;;0.50;0.50;;;;;;;;;;4935200;29;20202;-87
2021/10/17 05:30:09;;;;;;;0.60;0.60;;;;;;;;;;4935050;29;20210;-86
2021/10/17 05:32:37;;;;;;;0.57;0.57;;;;;;;;;;4934850;29;20664;-86
2021/10/17 05:35:04;;;;;;;0.50;0.50;;;;;;;;;;4934883;29;20206;-86
2021/10/17 05:37:32;;;;;;;3.27;2.27;;;;;;;;;;4940716;29;20241;-86
2021/10/17 05:40:00;;;;;;;1.97;1.80;;;;;;;;;;4951125;29;20843;-87
2021/10/17 05:42:28;;;;;;;2.50;1.40;;;;;;;;;;4954107;29;20209;-87
2021/10/17 05:44:55;;;;;;;1.90;1.73;;;;;;;;;;4953950;29;20213;-86
2021/10/17 05:47:22;;;;;;;1.13;1.03;;;;;;;;;;4953874;29;20201;-87
2021/10/17 05:49:50;;;;;;;2.13;1.40;;;;;;;;;;4953831;28;20304;-87
2021/10/17 05:52:17;;;;;;;1.40;1.30;;;;;;;;;;4953993;29;20213;-87
2021/10/17 05:54:44;;;;;;;1.50;1.40;;;;;;;;;;4954042;29;20682;-86
2021/10/17 05:57:13;;;;;;;1.97;1.77;;;;;;;;;;4953775;29;20574;-86
2021/10/17 05:59:40;;;;;;;1.67;1.57;;;;;;;;;;4954390;29;20651;-87
2021/10/17 06:02:07;;;;;;;3.73;0.57;;;;;;;;;;4954094;29;20205;-87
2021/10/17 06:04:35;;;;;;;23.37;18.17;;;;;;;;;;4953087;29;20206;-87
2021/10/17 06:07:02;;;;;;;11.83;10.63;;;;;;;;;;4946692;29;20210;-86
2021/10/17 06:09:34;;;;;;;10.40;5.37;;;;;;;;;;4939465;29;20237;-87
2021/10/17 06:12:02;;;;;;;23.83;20.30;;;;;;;;;;4934644;29;20660;-87
2021/10/17 06:14:30;;;;;;;7.07;5.90;;;;;;;;;;4934632;29;20202;-87
2021/10/17 06:16:58;;;;;;;3.40;3.10;;;;;;;;;;4934597;29;20209;-87
2021/10/17 06:19:25;;;;;;;29.47;26.53;;;;;;;;;;4934711;29;20203;-87
2021/10/17 06:21:52;;;;;;;18.17;16.50;;;;;;;;;;4934545;29;20297;-87
2021/10/17 06:24:19;;;;;;;9.67;8.87;;;;;;;;;;4934405;29;20676;-87
2021/10/17 06:26:47;;;;;;;4.33;4.03;;;;;;;;;;4934502;29;20695;-87
2021/10/17 06:29:14;;;;;;;45.73;29.10;;;;;;;;;;4934685;29;20230;-86
2021/10/17 06:31:43;;;;;;;3.30;2.70;;;;;;;;;;4934625;29;20207;-87
2021/10/17 06:34:10;;;;;;;4.57;4.17;;;;;;;;;;4932870;29;20213;-87
2021/10/17 06:36:37;;;;;;;196.40;30.87;;;;;;;;;;4953996;29;20202;-86
2021/10/17 06:39:04;;;;;;;65.33;11.10;;;;;;;;;;4954006;29;20202;-86
2021/10/17 06:41:32;;;;;;;115.00;14.63;;;;;;;;;;4953922;29;20667;-87
2021/10/17 06:44:00;;;;;;;3.33;2.07;;;;;;;;;;4953704;29;20225;-87
2021/10/17 06:46:27;;;;;;;5.00;1.33;;;;;;;;;;4946632;29;20207;-87
2021/10/17 06:48:55;;;;;;;1.90;1.80;;;;;;;;;;4946871;28;20242;-87
2021/10/17 06:51:23;;;;;;;9.87;1.83;;;;;;;;;;4957195;29;20197;-87
2021/10/17 06:53:50;;;;;;;18.60;4.70;;;;;;;;;;4957256;29;20695;-86
2021/10/17 06:56:17;;;;;;;9.43;1.93;;;;;;;;;;4957059;29;20212;-86
2021/10/17 06:58:44;;;;;;;4.23;1.77;;;;;;;;;;4957381;29;20204;-88
2021/10/17 07:01:12;;;;;;;4.37;4.07;;;;;;;;;;4957397;29;20202;-87
2021/10/17 07:03:40;;;;;;;2.67;2.47;;;;;;;;;;4957235;29;20206;-88
2021/10/17 07:06:09;;;;;;;5.50;5.20;;;;;;;;;;4957303;29;20588;-88
2021/10/17 07:08:36;;;;;;;7.37;6.87;;;;;;;;;;4957311;29;20232;-88
2021/10/17 07:11:03;;;;;;;21.23;17.73;;;;;;;;;;4957544;29;20575;-88
2021/10/17 07:13:31;;;;;;;13.27;12.07;;;;;;;;;;4957480;29;20197;-88
2021/10/17 07:15:58;;;;;;;4.83;4.43;;;;;;;;;;4957748;29;20583;-88
2021/10/17 07:18:25;;;;;;;1.90;1.27;;;;;;;;;;4957031;29;20209;-87
2021/10/17 07:20:53;;;;;;;1.90;1.80;;;;;;;;;;4957636;29;20663;-88
2021/10/17 07:23:21;;;;;;;4.27;1.50;;;;;;;;;;4957093;29;20210;-89
2021/10/17 07:25:48;;;;;;;10.40;9.50;;;;;;;;;;4957404;29;20580;-88
2021/10/17 07:28:17;;;;;;;4.63;4.20;;;;;;;;;;4957134;29;20201;-88
2021/10/17 07:30:44;;;;;;;1.53;1.43;;;;;;;;;;4957016;29;20189;-89
2021/10/17 07:33:11;;;;;;;2.13;1.50;;;;;;;;;;4957127;29;20201;-89
2021/10/17 07:35:39;;;;;;;7.67;7.07;;;;;;;;;;4956898;29;20198;-89
2021/10/17 07:38:06;;;;;;;3.37;2.50;;;;;;;;;;4956913;29;20202;-90
2021/10/17 07:40:35;;;;;;;1.30;1.30;;;;;;;;;;4956693;29;20205;-89
2021/10/17 07:43:02;;;;;;;1.00;1.00;;;;;;;;;;4957045;29;20205;-88
2021/10/17 07:45:29;;;;;;;0.90;0.90;;;;;;;;;;4956808;29;20282;-87
2021/10/17 07:47:56;;;;;;;0.90;0.90;;;;;;;;;;4956795;29;20205;-88
2021/10/17 07:50:24;;;;;;;0.70;0.70;;;;;;;;;;4956360;28;20241;-89
2021/10/17 07:52:51;;;;;;;1.73;1.40;;;;;;;;;;4956927;29;20213;-90
2021/10/17 07:55:18;;;;;;;0.87;0.87;;;;;;;;;;4956985;29;20201;-89
2021/10/17 07:57:49;;;;;;;0.50;0.50;;;;;;;;;;4956931;29;20260;-90
2021/10/17 08:00:18;;;;;;;3.33;2.60;;;;;;;;;;4955796;28;20196;-90
2021/10/17 08:02:45;;;;;;;2.30;2.10;;;;;;;;;;4956761;29;20202;-90
2021/10/17 08:05:13;;;;;;;1.13;1.10;;;;;;;;;;4956383;29;20202;-90
2021/10/17 08:07:40;;;;;;;1.40;1.30;;;;;;;;;;4956454;29;20204;-91
2021/10/17 08:10:08;;;;;;;1.30;1.20;;;;;;;;;;4956658;29;20222;-90
2021/10/17 08:12:36;;;;;;;0.90;0.90;;;;;;;;;;4956455;29;20212;-90
2021/10/17 08:15:06;;;;;;;1.90;1.80;;;;;;;;;;4956285;29;20218;-91
2021/10/17 08:17:34;;;;;;;14.97;10.63;;;;;;;;;;4956433;29;20201;-90
2021/10/17 08:20:01;;;;;;;2.53;2.33;;;;;;;;;;4956172;29;20243;-90
2021/10/17 08:22:28;;;;;;;1.23;1.20;;;;;;;;;;4956230;29;20678;-91
2021/10/17 08:24:56;;;;;;;2.30;2.10;;;;;;;;;;4956024;29;20237;-90
2021/10/17 08:27:23;;;;;;;1.20;1.20;;;;;;;;;;4956488;29;20213;-92
2021/10/17 08:29:50;;;;;;;2.50;2.30;;;;;;;;;;4956177;29;20235;-90
2021/10/17 08:32:19;;;;;;;1.10;1.10;;;;;;;;;;4956158;29;20200;-90
2021/10/17 08:34:46;;;;;;;1.57;1.47;;;;;;;;;;4953970;29;20273;-93
2021/10/17 08:37:13;;;;;;;7.23;6.53;;;;;;;;;;4955673;29;20219;-91
2021/10/17 08:39:40;;;;;;;2.10;1.90;;;;;;;;;;4955852;29;20205;-92
2021/10/17 08:42:08;;;;;;;1.00;1.00;;;;;;;;;;4955758;29;20208;-91
2021/10/17 08:44:35;;;;;;;1.80;1.13;;;;;;;;;;4956014;29;20580;-92
2021/10/17 08:47:03;;;;;;;1.03;1.03;;;;;;;;;;4955501;29;20208;-92
2021/10/17 08:49:32;;;;;;;1.23;1.13;;;;;;;;;;4955296;28;20254;-92
2021/10/17 08:51:59;;;;;;;0.90;0.90;;;;;;;;;;4955735;29;20602;-92
2021/10/17 08:54:26;;;;;;;1.27;1.17;;;;;;;;;;4955676;29;20212;-92
2021/10/17 08:56:53;;;;;;;3.40;2.90;;;;;;;;;;4955738;29;20557;-92
2021/10/17 08:59:21;;;;;;;3.80;3.50;;;;;;;;;;4955770;29;20675;-93
2021/10/17 09:02:32;;;;;;;2.73;2.47;;;;;;;;;;4955451;29;20675;-92
2021/10/17 09:05:03;;;;;;;1.20;1.10;;;;;;;;;;4939299;28;20205;-92
2021/10/17 09:07:30;;;;;;;1.43;1.33;;;;;;;;;;4955408;29;20209;-92
2021/10/17 09:10:09;;;;;;;3.03;2.83;;;;;;;;;;4955210;29;20232;-92
2021/10/17 09:12:37;;;;;;;1.60;1.50;;;;;;;;;;4954642;29;20698;-92
2021/10/17 09:15:25;;;;;;;7.10;4.73;;;;;;;;;;4955376;29;20663;-92
2021/10/17 09:18:13;;;;;;;2.87;2.60;;;;;;;;;;4955415;29;20209;-93
2021/10/17 09:21:10;;;;;;;8.57;7.73;;;;;;;;;;4955115;29;20209;-92
2021/10/17 09:23:42;;;;;;;1.30;1.20;;;;;;;;;;4901112;28;20206;-93
2021/10/17 09:26:17;;;;;;;1.70;1.60;;;;;;;;;;4955431;29;20190;-93
2021/10/17 09:28:44;;;;;;;1.40;1.30;;;;;;;;;;4955402;29;20205;-93
2021/10/17 09:31:14;;;;;;;2.40;1.17;;;;;;;;;;4955483;29;20302;-94
2021/10/17 09:33:44;;;;;;;1.90;1.40;;;;;;;;;;4947310;29;20214;-94
2021/10/17 09:36:27;;;;;;;1.97;1.80;;;;;;;;;;4938930;29;20300;-94
2021/10/17 09:38:58;;;;;;;2.17;1.30;;;;;;;;;;4955141;29;20201;-94
2021/10/17 09:41:32;;;;;;;1.30;1.17;;;;;;;;;;4954738;29;20208;-92
2021/10/17 09:44:03;;;;;;;1.70;1.60;;;;;;;;;;4955290;29;20228;-93
2021/10/17 09:46:30;;;;;;;1.70;1.40;;;;;;;;;;4954960;29;20201;-92
2021/10/17 09:48:59;;;;;;;1.30;1.20;;;;;;;;;;4934739;29;20242;-93
2021/10/17 09:51:29;;;;;;;3.20;1.80;;;;;;;;;;4935662;29;20202;-94
2021/10/17 09:53:59;;;;;;;1.50;1.40;;;;;;;;;;4935785;29;20220;-94
2021/10/17 09:56:29;;;;;;;1.10;1.10;;;;;;;;;;4938997;29;20206;-92
2021/10/17 09:58:58;;;;;;;1.17;1.17;;;;;;;;;;4935933;29;20210;-92
2021/10/17 10:01:26;;;;;;;1.57;1.47;;;;;;;;;;4935640;29;20217;-92
2021/10/17 10:03:55;;;;;;;1.70;1.60;;;;;;;;;;4936013;29;20212;-92
2021/10/17 10:06:23;;;;;;;1.30;1.23;;;;;;;;;;4935521;29;20214;-92
2021/10/17 10:08:56;;;;;;;1.67;1.33;;;;;;;;;;4935369;29;20199;-91
2021/10/17 10:11:26;;;;;;;2.30;2.10;;;;;;;;;;4935353;29;20191;-93
2021/10/17 10:13:54;;;;;;;1.53;1.43;;;;;;;;;;4935343;29;20671;-92
2021/10/17 10:16:23;;;;;;;2.50;2.30;;;;;;;;;;4935802;29;20218;-92
2021/10/17 10:18:52;;;;;;;3.33;1.70;;;;;;;;;;4935542;29;20203;-93
2021/10/17 10:21:21;;;;;;;1.20;1.20;;;;;;;;;;4934993;29;20214;-93
2021/10/17 10:23:51;;;;;;;3.47;2.33;;;;;;;;;;4938467;29;20199;-93
2021/10/17 10:26:21;;;;;;;3.53;2.77;;;;;;;;;;4939544;29;20858;-95
2021/10/17 10:28:48;;;;;;;2.20;2.00;;;;;;;;;;4939247;29;20207;-94
2021/10/17 10:31:47;;;;;;;2.63;2.43;;;;;;;;;;4939216;29;20222;-93
2021/10/17 10:35:03;;;;;;;1.50;1.40;;;;;;;;;;4930757;29;20241;-94
2021/10/17 10:37:38;;;;;;;3.23;3.03;;;;;;;;;;4923896;29;20206;-94
2021/10/17 10:40:15;;;;;;;1.97;1.87;;;;;;;;;;4938616;29;20202;-93
2021/10/17 10:42:44;;;;;;;1.90;1.63;;;;;;;;;;4938790;29;20242;-92
2021/10/17 10:45:37;;;;;;;1.23;1.23;;;;;;;;;;4938765;29;20211;-92
2021/10/17 10:48:24;;;;;;;1.10;1.10;;;;;;;;;;4939421;29;20189;-94
2021/10/17 10:50:54;;;;;;;1.33;1.23;;;;;;;;;;4958510;29;20329;-92
2021/10/17 10:53:47;;;;;;;1.50;1.40;;;;;;;;;;4957761;29;20194;-90
2021/10/17 10:56:49;;;;;;;0.90;0.90;;;;;;;;;;4957971;29;20197;-92
2021/10/17 10:59:18;;;;;;;2.93;2.10;;;;;;;;;;4958124;29;20193;-93
2021/10/17 11:02:10;;;;;;;2.27;2.07;;;;;;;;;;4957735;29;20198;-93
2021/10/17 11:05:07;;;;;;;5.17;2.93;;;;;;;;;;4958002;29;20276;-91
2021/10/17 11:07:40;;;;;;;1.30;1.20;;;;;;;;;;4957764;29;20273;-90
2021/10/17 11:10:35;;;;;;;1.30;1.20;;;;;;;;;;4957899;29;20232;-89
2021/10/17 11:13:05;;;;;;;1.53;1.43;;;;;;;;;;4957313;29;20190;-90
2021/10/17 11:15:34;;;;;;;2.33;1.60;;;;;;;;;;4957715;29;20583;-90
2021/10/17 11:18:04;;;;;;;1.30;1.20;;;;;;;;;;4957357;29;20206;-90
2021/10/17 11:20:34;;;;;;;1.60;1.50;;;;;;;;;;4957345;29;20253;-90
2021/10/17 11:23:02;;;;;;;2.90;2.70;;;;;;;;;;4957647;29;20195;-90
2021/10/17 11:25:30;;;;;;;2.03;1.83;;;;;;;;;;4957423;29;20197;-93
2021/10/17 11:27:58;;;;;;;1.87;1.70;;;;;;;;;;4957289;29;20209;-90
2021/10/17 11:30:28;;;;;;;1.80;1.70;;;;;;;;;;4957151;29;20226;-92
2021/10/17 11:32:56;;;;;;;3.03;2.83;;;;;;;;;;4957081;29;20203;-90
2021/10/17 11:35:28;;;;;;;4.87;3.80;;;;;;;;;;4956024;28;20287;-90
2021/10/17 11:37:56;;;;;;;1.60;1.50;;;;;;;;;;4956824;29;20202;-89
2021/10/17 11:40:24;;;;;;;3.30;3.10;;;;;;;;;;4956830;29;20209;-91
2021/10/17 11:42:52;;;;;;;1.57;1.47;;;;;;;;;;4956612;29;20213;-91
2021/10/17 11:45:22;;;;;;;5.60;4.80;;;;;;;;;;4956712;29;20249;-90
2021/10/17 11:47:51;;;;;;;2.57;2.37;;;;;;;;;;4956786;29;20261;-92
2021/10/17 11:50:21;;;;;;;4.30;3.33;;;;;;;;;;4957039;28;20637;-90
2021/10/17 11:52:57;;;;;;;7.53;6.90;;;;;;;;;;4956770;29;20241;-89
2021/10/17 11:55:31;;;;;;;4.20;3.00;;;;;;;;;;4956576;29;20291;-91
2021/10/17 11:57:59;;;;;;;3.20;1.70;;;;;;;;;;4956674;29;20205;-90
2021/10/17 12:00:28;;;;;;;1.30;1.30;;;;;;;;;;4956430;29;20233;-90
2021/10/17 12:02:57;;;;;;;5.80;2.43;;;;;;;;;;4956700;29;20259;-90
2021/10/17 12:05:26;;;;;;;6.57;3.20;;;;;;;;;;4956372;29;20206;-92
2021/10/17 12:07:56;;;;;;;3.53;2.63;;;;;;;;;;4956441;29;20235;-90
2021/10/17 12:10:23;;;;;;;6.73;4.53;;;;;;;;;;4957079;29;20317;-90
2021/10/17 12:12:51;;;;;;;3.63;3.00;;;;;;;;;;4956243;29;20252;-91
2021/10/17 12:15:18;;;;;;;7.03;5.70;;;;;;;;;;4956190;29;20206;-90
2021/10/17 12:17:58;;;;;;;1.87;1.77;;;;;;;;;;4956301;29;20587;-90
2021/10/17 12:20:26;;;;;;;42.93;33.63;;;;;;;;;;4956468;29;20186;-91
2021/10/17 12:22:54;;;;;;;8.00;6.23;;;;;;;;;;4956281;29;20820;-91
2021/10/17 12:25:21;;;;;;;4.70;4.20;;;;;;;;;;4956852;29;20231;-90
2021/10/17 12:27:49;;;;;;;11.13;10.10;;;;;;;;;;4955984;29;20208;-90
2021/10/17 12:30:19;;;;;;;8.60;7.70;;;;;;;;;;4956207;29;20269;-90
2021/10/17 12:32:48;;;;;;;2.13;1.93;;;;;;;;;;4955856;29;20202;-91
2021/10/17 12:35:24;;;;;;;1.20;1.10;;;;;;;;;;4957105;29;20205;-89
2021/10/17 12:37:51;;;;;;;1.10;1.10;;;;;;;;;;4955836;29;20194;-91
2021/10/17 12:40:19;;;;;;;2.20;1.10;;;;;;;;;;4955705;29;20734;-90
2021/10/17 12:42:48;;;;;;;3.47;1.13;;;;;;;;;;4956058;29;20591;-89
2021/10/17 12:45:15;;;;;;;2.27;1.70;;;;;;;;;;4955692;28;20206;-89
2021/10/17 12:47:43;;;;;;;1.30;1.30;;;;;;;;;;4955683;29;20211;-89
2021/10/17 12:50:15;;;;;;;0.97;0.93;;;;;;;;;;4954524;29;20235;-90
2021/10/17 12:52:54;;;;;;;1.57;1.47;;;;;;;;;;4955579;29;20257;-91
2021/10/17 12:55:21;;;;;;;0.97;0.97;;;;;;;;;;4955550;29;20671;-90
2021/10/17 12:58:02;;;;;;;1.00;1.00;;;;;;;;;;4955622;29;20694;-91
2021/10/17 13:00:29;;;;;;;1.20;1.20;;;;;;;;;;4955365;29;20186;-92
2021/10/17 13:03:17;;;;;;;1.60;1.50;;;;;;;;;;4955293;29;20233;-91
2021/10/17 13:05:52;;;;;;;1.27;1.20;;;;;;;;;;4955540;29;20198;-91
2021/10/17 13:08:21;;;;;;;1.40;1.30;;;;;;;;;;4955316;29;20220;-90
2021/10/17 13:10:49;;;;;;;1.27;1.17;;;;;;;;;;4955424;29;20222;-91
2021/10/17 13:13:19;;;;;;;1.37;1.27;;;;;;;;;;4955206;29;20203;-92
2021/10/17 13:15:47;;;;;;;1.10;1.10;;;;;;;;;;4955503;29;20281;-91
2021/10/17 13:18:15;;;;;;;2.47;2.27;;;;;;;;;;4955206;29;20264;-92
2021/10/17 13:20:42;;;;;;;1.70;1.60;;;;;;;;;;4955297;29;20830;-91
2021/10/17 13:23:12;;;;;;;1.60;1.50;;;;;;;;;;4955197;29;20667;-92
2021/10/17 13:25:41;;;;;;;1.20;1.10;;;;;;;;;;4955266;29;20197;-93
2021/10/17 13:28:09;;;;;;;1.77;1.60;;;;;;;;;;4955485;29;20202;-92
2021/10/17 13:30:37;;;;;;;1.53;1.40;;;;;;;;;;4954921;29;20320;-91
2021/10/17 13:33:05;;;;;;;1.70;1.60;;;;;;;;;;4955122;29;20225;-93
2021/10/17 13:35:33;;;;;;;1.80;1.70;;;;;;;;;;4954964;29;20194;-92
2021/10/17 13:38:01;;;;;;;1.60;1.50;;;;;;;;;;4955355;29;20233;-91
2021/10/17 13:40:28;;;;;;;1.70;1.60;;;;;;;;;;4955054;29;20664;-91
2021/10/17 13:42:58;;;;;;;6.07;4.27;;;;;;;;;;4954792;29;20229;-92
2021/10/17 13:45:26;;;;;;;4.00;1.57;;;;;;;;;;4954899;29;20202;-93
2021/10/17 13:47:54;;;;;;;3.60;2.87;;;;;;;;;;4954900;29;20655;-91
2021/10/17 13:50:21;;;;;;;7.33;6.60;;;;;;;;;;4954506;29;20711;-91
2021/10/17 13:52:48;;;;;;;5.67;4.07;;;;;;;;;;4954446;29;20202;-92
2021/10/17 13:55:16;;;;;;;7.27;6.07;;;;;;;;;;4954643;29;20297;-91
2021/10/17 13:57:45;;;;;;;16.83;10.33;;;;;;;;;;4954096;28;20717;-92
2021/10/17 14:00:15;;;;;;;7.30;5.80;;;;;;;;;;4954879;29;20208;-91
2021/10/17 14:02:42;;;;;;;4.57;4.17;;;;;;;;;;4954445;29;20195;-91
2021/10/17 14:05:10;;;;;;;4.20;3.80;;;;;;;;;;4954485;29;20216;-91
2021/10/17 14:07:38;;;;;;;3.00;2.67;;;;;;;;;;4955015;29;20734;-91
2021/10/17 14:10:06;;;;;;;20.43;12.90;;;;;;;;;;4954537;29;20227;-91
2021/10/17 14:12:36;;;;;;;3.87;3.47;;;;;;;;;;4948761;29;20285;-92
2021/10/17 14:15:03;;;;;;;4.30;3.90;;;;;;;;;;4954649;29;20209;-91
2021/10/17 14:17:32;;;;;;;4.50;4.20;;;;;;;;;;4954540;29;20205;-91
2021/10/17 14:19:59;;;;;;;3.83;3.53;;;;;;;;;;4954081;29;20237;-91
2021/10/17 14:22:27;;;;;;;3.10;1.83;;;;;;;;;;4954622;29;20624;-90
2021/10/17 14:24:54;;;;;;;3.40;2.10;;;;;;;;;;4954236;29;20205;-91
2021/10/17 14:27:23;;;;;;;2.50;2.30;;;;;;;;;;4954192;29;20202;-93
2021/10/17 14:29:51;;;;;;;5.47;4.67;;;;;;;;;;4954644;29;20206;-91
2021/10/17 14:32:18;;;;;;;32.30;10.47;;;;;;;;;;4954144;29;20309;-90
2021/10/17 14:34:47;;;;;;;7.47;6.10;;;;;;;;;;4954679;29;20581;-91
2021/10/17 14:37:14;;;;;;;35.43;5.83;;;;;;;;;;4954182;29;20286;-91
2021/10/17 14:39:46;;;;;;;5.37;3.20;;;;;;;;;;4954257;29;20205;-92
2021/10/17 14:42:15;;;;;;;4.23;3.83;;;;;;;;;;4954559;29;20193;-93
2021/10/17 14:44:43;;;;;;;9.13;6.80;;;;;;;;;;4954798;29;20212;-96
2021/10/17 14:47:10;;;;;;;4.30;3.00;;;;;;;;;;4954699;29;20198;-95
2021/10/17 14:49:38;;;;;;;7.50;6.80;;;;;;;;;;4954456;28;20241;-87
2021/10/17 14:52:09;;;;;;;43.67;34.07;;;;;;;;;;4953984;29;20313;-88